Time;durP1;ratioP1;P1;durP2;ratioP2;P2;SDS_P1;SDS_P2;PMS_P1;PMS_P2;Temp;Humidity;BMP_temperature;BMP_pressure;BME280_temperature;BME280_humidity;BME280_pressure;Samples;Min_cycle;Max_cycle;Signal;HPM_P1;HPM_P2
2022/06/15 00:02:04;;;;;;;6.95;3.58;;;;;;;;;;5062198;28;20548;-67
2022/06/15 00:04:32;;;;;;;3.80;3.50;;;;;;;;;;5061919;28;20209;-67
2022/06/15 00:06:58;;;;;;;6.60;3.20;;;;;;;;;;5062721;28;20220;-67
2022/06/15 00:09:25;;;;;;;4.88;3.80;;;;;;;;;;5066148;28;20519;-67
2022/06/15 00:11:52;;;;;;;3.90;3.58;;;;;;;;;;5065939;28;20196;-67
2022/06/15 00:14:20;;;;;;;6.03;3.60;;;;;;;;;;5066133;28;20201;-67
2022/06/15 00:16:46;;;;;;;4.03;3.63;;;;;;;;;;5065903;28;20360;-67
2022/06/15 00:19:12;;;;;;;7.82;3.47;;;;;;;;;;5065892;28;20209;-67
2022/06/15 00:21:40;;;;;;;4.15;3.83;;;;;;;;;;5065904;28;20383;-67
2022/06/15 00:24:06;;;;;;;4.50;3.28;;;;;;;;;;5065968;28;20235;-67
2022/06/15 00:26:33;;;;;;;4.38;3.60;;;;;;;;;;5065248;28;20217;-67
2022/06/15 00:28:59;;;;;;;4.20;3.25;;;;;;;;;;5066093;28;20361;-67
2022/06/15 00:31:25;;;;;;;3.45;3.17;;;;;;;;;;5065863;28;20208;-67
2022/06/15 00:33:51;;;;;;;6.47;3.40;;;;;;;;;;5065682;28;20197;-67
2022/06/15 00:36:19;;;;;;;5.53;3.53;;;;;;;;;;5065259;28;20193;-67
2022/06/15 00:38:47;;;;;;;4.00;3.17;;;;;;;;;;5065460;28;20236;-67
2022/06/15 00:41:15;;;;;;;5.43;3.53;;;;;;;;;;5065430;28;20197;-67
2022/06/15 00:43:42;;;;;;;3.60;3.03;;;;;;;;;;5065564;28;20389;-67
2022/06/15 00:46:16;;;;;;;4.28;3.88;;;;;;;;;;5065236;28;20339;-67
2022/06/15 00:48:43;;;;;;;5.28;3.55;;;;;;;;;;5065455;28;20501;-67
2022/06/15 00:51:09;;;;;;;3.90;3.63;;;;;;;;;;5065366;28;20460;-67
2022/06/15 00:53:37;;;;;;;3.35;3.05;;;;;;;;;;5065105;28;20271;-67
2022/06/15 00:56:06;;;;;;;3.55;3.25;;;;;;;;;;5065255;28;20193;-67
2022/06/15 00:58:32;;;;;;;4.72;3.55;;;;;;;;;;5065274;28;20204;-67
2022/06/15 01:00:58;;;;;;;3.72;3.42;;;;;;;;;;5065079;28;20204;-67
2022/06/15 01:03:25;;;;;;;3.70;3.40;;;;;;;;;;5065137;28;20197;-67
2022/06/15 01:05:54;;;;;;;4.88;3.17;;;;;;;;;;5064802;28;20229;-67
2022/06/15 01:08:25;;;;;;;3.20;3.10;;;;;;;;;;5064784;28;20196;-67
2022/06/15 01:11:13;;;;;;;6.47;3.22;;;;;;;;;;5065247;28;20428;-67
2022/06/15 01:13:49;;;;;;;4.55;3.58;;;;;;;;;;5065011;28;20197;-67
2022/06/15 01:16:19;;;;;;;6.20;3.67;;;;;;;;;;5064697;28;20543;-67
2022/06/15 01:18:50;;;;;;;7.15;4.00;;;;;;;;;;5064396;28;20197;-67
2022/06/15 01:21:21;;;;;;;7.32;4.25;;;;;;;;;;5064963;28;20208;-67
2022/06/15 01:24:06;;;;;;;7.50;4.38;;;;;;;;;;5064602;28;20204;-67
2022/06/15 01:26:43;;;;;;;4.30;3.92;;;;;;;;;;5064366;28;20216;-67
2022/06/15 01:29:18;;;;;;;4.80;3.40;;;;;;;;;;5064568;28;20197;-67
2022/06/15 01:31:49;;;;;;;4.05;3.58;;;;;;;;;;5064736;28;20201;-67
2022/06/15 01:34:19;;;;;;;4.30;3.92;;;;;;;;;;5064388;28;20205;-67
2022/06/15 01:36:49;;;;;;;5.07;3.70;;;;;;;;;;5063878;28;20353;-67
2022/06/15 01:39:18;;;;;;;5.78;4.68;;;;;;;;;;5064379;28;20212;-67
2022/06/15 01:41:46;;;;;;;4.75;4.00;;;;;;;;;;5064435;28;20205;-67
2022/06/15 01:44:14;;;;;;;5.55;3.40;;;;;;;;;;5064331;28;20204;-67
2022/06/15 01:46:42;;;;;;;10.85;4.20;;;;;;;;;;5064089;28;20494;-67
2022/06/15 01:49:10;;;;;;;5.22;3.55;;;;;;;;;;5064070;28;20528;-67
2022/06/15 01:51:39;;;;;;;7.85;3.92;;;;;;;;;;5064306;28;20197;-67
2022/06/15 01:54:09;;;;;;;5.22;4.40;;;;;;;;;;5063915;28;20203;-67
2022/06/15 01:56:37;;;;;;;9.85;4.18;;;;;;;;;;5063995;28;20200;-67
2022/06/15 01:59:07;;;;;;;4.85;4.35;;;;;;;;;;5064050;28;20235;-67
2022/06/15 02:01:38;;;;;;;4.50;3.65;;;;;;;;;;5063972;28;20197;-67
2022/06/15 02:04:09;;;;;;;4.45;3.65;;;;;;;;;;5064106;28;20196;-67
2022/06/15 02:06:39;;;;;;;10.88;4.35;;;;;;;;;;5063887;28;20247;-67
2022/06/15 02:09:09;;;;;;;6.72;3.85;;;;;;;;;;5063803;28;20209;-67
2022/06/15 02:11:38;;;;;;;4.50;4.10;;;;;;;;;;5063900;28;20362;-67
2022/06/15 02:14:06;;;;;;;4.65;3.78;;;;;;;;;;5063497;28;20197;-67
2022/06/15 02:16:34;;;;;;;6.32;4.07;;;;;;;;;;5063448;28;20200;-67
2022/06/15 02:19:02;;;;;;;3.72;3.50;;;;;;;;;;5063762;28;20543;-67
2022/06/15 02:21:29;;;;;;;4.20;3.80;;;;;;;;;;5063794;28;20197;-67
2022/06/15 02:23:58;;;;;;;5.18;3.80;;;;;;;;;;5063491;28;20201;-67
2022/06/15 02:26:25;;;;;;;6.95;3.90;;;;;;;;;;5063613;28;20213;-67
2022/06/15 02:28:54;;;;;;;4.72;3.30;;;;;;;;;;5063582;28;20197;-67
2022/06/15 02:31:20;;;;;;;4.13;3.05;;;;;;;;;;5063015;28;20209;-67
2022/06/15 02:33:49;;;;;;;7.95;3.80;;;;;;;;;;5063354;28;20197;-67
2022/06/15 02:36:15;;;;;;;3.92;3.40;;;;;;;;;;5063051;28;20193;-67
2022/06/15 02:38:44;;;;;;;4.30;3.72;;;;;;;;;;5063165;28;20207;-67
2022/06/15 02:41:12;;;;;;;4.55;3.75;;;;;;;;;;5063050;28;20267;-67
2022/06/15 02:43:40;;;;;;;3.53;3.30;;;;;;;;;;5063410;28;20197;-67
2022/06/15 02:46:08;;;;;;;5.72;3.55;;;;;;;;;;5063038;28;20529;-67
2022/06/15 02:48:34;;;;;;;3.33;3.13;;;;;;;;;;5062992;28;20208;-67
2022/06/15 02:51:03;;;;;;;4.00;3.28;;;;;;;;;;5063011;28;20204;-67
2022/06/15 02:53:32;;;;;;;4.78;3.53;;;;;;;;;;5063021;28;20539;-67
2022/06/15 02:55:58;;;;;;;4.47;3.20;;;;;;;;;;5063055;28;20208;-67
2022/06/15 02:58:27;;;;;;;3.78;3.47;;;;;;;;;;5062974;28;20197;-67
2022/06/15 03:00:54;;;;;;;3.45;3.30;;;;;;;;;;5063004;28;20197;-67
2022/06/15 03:03:22;;;;;;;3.67;3.40;;;;;;;;;;5063021;28;20197;-67
2022/06/15 03:05:49;;;;;;;3.03;2.83;;;;;;;;;;5062619;28;20231;-67
2022/06/15 03:08:15;;;;;;;3.63;3.35;;;;;;;;;;5062473;28;20414;-67
2022/06/15 03:10:42;;;;;;;3.90;3.40;;;;;;;;;;5062971;28;20197;-67
2022/06/15 03:13:08;;;;;;;4.13;3.30;;;;;;;;;;5062881;28;20571;-67
2022/06/15 03:15:36;;;;;;;4.35;3.50;;;;;;;;;;5062728;28;20212;-67
2022/06/15 03:18:02;;;;;;;3.95;3.65;;;;;;;;;;5062377;28;20417;-67
2022/06/15 03:20:29;;;;;;;5.32;4.15;;;;;;;;;;5062512;28;20205;-67
2022/06/15 03:22:55;;;;;;;4.75;3.67;;;;;;;;;;5062486;28;20208;-67
2022/06/15 03:25:21;;;;;;;3.67;3.38;;;;;;;;;;5062661;28;20520;-67
2022/06/15 03:27:48;;;;;;;4.05;3.72;;;;;;;;;;5062228;28;20228;-67
2022/06/15 03:30:15;;;;;;;4.07;3.53;;;;;;;;;;5062445;28;20204;-67
2022/06/15 03:32:43;;;;;;;7.93;3.78;;;;;;;;;;5062342;28;20197;-67
2022/06/15 03:35:10;;;;;;;3.80;3.20;;;;;;;;;;5062347;28;20203;-67
2022/06/15 03:37:37;;;;;;;4.13;3.72;;;;;;;;;;5062010;28;20193;-67
2022/06/15 03:40:04;;;;;;;5.30;3.92;;;;;;;;;;5062275;28;20234;-67
2022/06/15 03:42:31;;;;;;;4.30;3.88;;;;;;;;;;5062305;28;20432;-67
2022/06/15 03:44:57;;;;;;;4.88;3.67;;;;;;;;;;5062381;28;20203;-67
2022/06/15 03:47:23;;;;;;;4.05;3.75;;;;;;;;;;5062045;28;20221;-67
2022/06/15 03:49:52;;;;;;;5.82;4.15;;;;;;;;;;5062101;28;20205;-67
2022/06/15 03:52:20;;;;;;;3.90;3.60;;;;;;;;;;5062300;28;20201;-67
2022/06/15 03:54:46;;;;;;;4.57;3.97;;;;;;;;;;5062278;28;20197;-67
2022/06/15 03:57:13;;;;;;;5.03;3.50;;;;;;;;;;5061875;28;20515;-67
2022/06/15 03:59:40;;;;;;;4.82;3.88;;;;;;;;;;5062244;28;20193;-67
2022/06/15 04:02:06;;;;;;;4.75;3.33;;;;;;;;;;5062083;28;20197;-67
2022/06/15 04:04:33;;;;;;;3.80;3.50;;;;;;;;;;5061737;28;20197;-67
2022/06/15 04:07:00;;;;;;;4.25;3.85;;;;;;;;;;5061844;28;20217;-67
2022/06/15 04:09:26;;;;;;;4.28;3.95;;;;;;;;;;5062051;28;20423;-67
2022/06/15 04:12:08;;;;;;;5.47;3.58;;;;;;;;;;5062078;28;20269;-67
2022/06/15 04:15:05;;;;;;;8.85;4.07;;;;;;;;;;5061946;28;20246;-68
2022/06/15 04:17:32;;;;;;;4.95;3.80;;;;;;;;;;5061139;28;20489;-69
2022/06/15 04:22:44;;;;;;;5.00;4.50;;;;;;;;;;5061926;28;20542;-69
2022/06/15 04:25:10;;;;;;;5.53;4.38;;;;;;;;;;5062134;28;20203;-69
2022/06/15 04:27:37;;;;;;;6.18;4.53;;;;;;;;;;5061499;28;20221;-69
2022/06/15 04:30:03;;;;;;;4.68;4.28;;;;;;;;;;5061823;28;20213;-69
2022/06/15 04:32:30;;;;;;;5.75;4.47;;;;;;;;;;5062126;28;20197;-69
2022/06/15 04:34:56;;;;;;;5.10;4.70;;;;;;;;;;5061698;28;20197;-69
2022/06/15 04:37:23;;;;;;;4.95;4.55;;;;;;;;;;5061804;28;20370;-70
2022/06/15 04:39:50;;;;;;;7.85;4.93;;;;;;;;;;5061866;28;20243;-68
2022/06/15 04:42:17;;;;;;;7.43;4.90;;;;;;;;;;5061780;28;20203;-68
2022/06/15 04:44:43;;;;;;;6.63;4.95;;;;;;;;;;5061735;28;20373;-68
2022/06/15 04:47:10;;;;;;;5.10;4.65;;;;;;;;;;5061694;28;20217;-71
2022/06/15 04:49:36;;;;;;;7.22;4.78;;;;;;;;;;5061660;28;20197;-70
2022/06/15 04:52:06;;;;;;;8.70;4.90;;;;;;;;;;5061770;28;20203;-70
2022/06/15 04:54:32;;;;;;;10.00;5.18;;;;;;;;;;5064931;28;20476;-70
2022/06/15 04:56:59;;;;;;;4.85;4.45;;;;;;;;;;5064930;28;20199;-70
2022/06/15 04:59:26;;;;;;;5.32;4.75;;;;;;;;;;5065386;28;20288;-70
2022/06/15 05:01:52;;;;;;;5.35;4.57;;;;;;;;;;5065084;28;20283;-71
2022/06/15 05:04:19;;;;;;;7.78;4.82;;;;;;;;;;5064692;28;20197;-70
2022/06/15 05:06:45;;;;;;;7.53;5.43;;;;;;;;;;5064420;28;20233;-70
2022/06/15 05:09:13;;;;;;;8.02;5.20;;;;;;;;;;5064550;28;20519;-70
2022/06/15 05:11:40;;;;;;;5.75;5.18;;;;;;;;;;5064443;28;20217;-70
2022/06/15 05:14:08;;;;;;;4.97;4.40;;;;;;;;;;5064665;28;20632;-70
2022/06/15 05:16:34;;;;;;;5.25;4.75;;;;;;;;;;5064377;28;20197;-70
2022/06/15 05:19:01;;;;;;;5.85;4.35;;;;;;;;;;5064283;28;20208;-70
2022/06/15 05:21:27;;;;;;;5.85;4.20;;;;;;;;;;5064473;28;20197;-70
2022/06/15 05:23:54;;;;;;;4.82;4.35;;;;;;;;;;5064434;28;20497;-70
2022/06/15 05:26:24;;;;;;;7.85;4.22;;;;;;;;;;5064130;28;20197;-70
2022/06/15 05:28:50;;;;;;;7.15;4.05;;;;;;;;;;5064488;28;20197;-70
2022/06/15 05:31:20;;;;;;;5.72;4.15;;;;;;;;;;5064555;28;20504;-70
2022/06/15 05:33:46;;;;;;;4.35;3.88;;;;;;;;;;5064486;28;20519;-70
2022/06/15 05:36:14;;;;;;;4.22;3.92;;;;;;;;;;5064605;28;20225;-70
2022/06/15 05:38:40;;;;;;;4.45;4.10;;;;;;;;;;5063971;28;20207;-70
2022/06/15 05:41:07;;;;;;;5.70;4.40;;;;;;;;;;5064008;28;20226;-71
2022/06/15 05:43:35;;;;;;;4.82;4.43;;;;;;;;;;5064048;28;20272;-71
2022/06/15 05:46:11;;;;;;;4.18;3.78;;;;;;;;;;5063699;28;20202;-70
2022/06/15 05:48:39;;;;;;;5.95;4.40;;;;;;;;;;5063845;28;20271;-70
2022/06/15 05:51:05;;;;;;;6.93;4.43;;;;;;;;;;5063958;28;20420;-70
2022/06/15 05:53:32;;;;;;;7.22;4.50;;;;;;;;;;5064005;28;20418;-70
2022/06/15 05:55:58;;;;;;;5.05;4.60;;;;;;;;;;5063618;28;20201;-70
2022/06/15 05:58:24;;;;;;;6.25;5.07;;;;;;;;;;5063628;28;20200;-70
2022/06/15 06:00:50;;;;;;;5.63;4.72;;;;;;;;;;5063630;28;20201;-70
2022/06/15 06:03:17;;;;;;;5.80;4.50;;;;;;;;;;5063515;28;20197;-71
2022/06/15 06:05:44;;;;;;;6.95;4.22;;;;;;;;;;5062365;28;20225;-70
2022/06/15 06:08:10;;;;;;;8.32;4.65;;;;;;;;;;5063815;28;20221;-70
2022/06/15 06:10:37;;;;;;;6.82;4.95;;;;;;;;;;5064025;28;20209;-71
2022/06/15 06:13:03;;;;;;;9.32;5.00;;;;;;;;;;5063993;28;20203;-71
2022/06/15 06:15:31;;;;;;;9.00;4.40;;;;;;;;;;5063784;28;20419;-71
2022/06/15 06:18:01;;;;;;;10.25;4.10;;;;;;;;;;5063484;28;20201;-71
2022/06/15 06:20:27;;;;;;;10.65;4.45;;;;;;;;;;5063517;28;20196;-71
2022/06/15 06:22:55;;;;;;;7.07;4.40;;;;;;;;;;5063883;28;20388;-70
2022/06/15 06:25:21;;;;;;;7.75;4.65;;;;;;;;;;5063713;28;20203;-70
2022/06/15 06:27:47;;;;;;;7.18;4.45;;;;;;;;;;5061490;28;20220;-71
2022/06/15 06:30:14;;;;;;;8.88;4.53;;;;;;;;;;5049534;28;20220;-71
2022/06/15 06:32:40;;;;;;;5.53;4.90;;;;;;;;;;5057797;28;20212;-71
2022/06/15 06:35:07;;;;;;;6.38;4.53;;;;;;;;;;5059403;28;20197;-70
2022/06/15 06:37:35;;;;;;;6.38;4.60;;;;;;;;;;5051778;28;20197;-70
2022/06/15 06:40:03;;;;;;;7.35;4.15;;;;;;;;;;5045286;28;20210;-70
2022/06/15 06:42:29;;;;;;;8.13;4.20;;;;;;;;;;5060304;28;20208;-69
2022/06/15 06:44:55;;;;;;;5.57;4.07;;;;;;;;;;5059351;28;20211;-71
2022/06/15 06:47:21;;;;;;;5.47;3.78;;;;;;;;;;5059659;28;20558;-62
2022/06/15 06:49:48;;;;;;;6.80;4.53;;;;;;;;;;5059985;28;20377;-63
2022/06/15 06:52:14;;;;;;;9.07;4.10;;;;;;;;;;5057880;28;20275;-62
2022/06/15 06:54:40;;;;;;;5.00;3.92;;;;;;;;;;5059243;28;20212;-63
2022/06/15 06:59:55;;;;;;;11.50;4.05;;;;;;;;;;5058132;28;20263;-63
2022/06/15 07:02:21;;;;;;;6.90;3.90;;;;;;;;;;5060280;28;20204;-62
2022/06/15 07:04:47;;;;;;;6.38;3.65;;;;;;;;;;5059956;28;20213;-63
2022/06/15 07:07:14;;;;;;;7.95;4.60;;;;;;;;;;5059871;28;20224;-62
2022/06/15 07:09:40;;;;;;;9.40;4.20;;;;;;;;;;5048993;28;20282;-62
2022/06/15 07:12:07;;;;;;;7.25;4.65;;;;;;;;;;5039131;28;20474;-62
2022/06/15 07:14:35;;;;;;;6.80;4.40;;;;;;;;;;5039308;28;20213;-63
2022/06/15 07:17:01;;;;;;;8.02;4.63;;;;;;;;;;5038652;28;20225;-62
2022/06/15 07:19:27;;;;;;;12.68;5.07;;;;;;;;;;5039155;28;20246;-62
2022/06/15 07:21:54;;;;;;;6.20;4.03;;;;;;;;;;5038793;28;20205;-63
2022/06/15 07:24:20;;;;;;;7.45;5.07;;;;;;;;;;5038379;28;20209;-62
2022/06/15 07:26:47;;;;;;;9.20;4.53;;;;;;;;;;5038578;28;20210;-62
2022/06/15 07:29:15;;;;;;;6.78;4.03;;;;;;;;;;5049983;28;20221;-61
2022/06/15 07:31:44;;;;;;;23.63;11.80;;;;;;;;;;5038382;28;20564;-62
2022/06/15 07:34:11;;;;;;;6.97;4.72;;;;;;;;;;5039024;28;20513;-63
2022/06/15 07:36:39;;;;;;;6.32;3.65;;;;;;;;;;5038303;28;20216;-63
2022/06/15 07:39:06;;;;;;;6.53;4.03;;;;;;;;;;5037756;28;20232;-61
2022/06/15 07:41:33;;;;;;;10.32;3.97;;;;;;;;;;5042356;28;20207;-62
2022/06/15 07:43:59;;;;;;;9.02;4.00;;;;;;;;;;5058773;28;20404;-62
2022/06/15 07:46:25;;;;;;;9.60;3.90;;;;;;;;;;5058549;28;20485;-61
2022/06/15 07:51:38;;;;;;;9.82;4.22;;;;;;;;;;5058639;28;20215;-62
2022/06/15 07:54:06;;;;;;;6.40;3.58;;;;;;;;;;5057797;28;20209;-63
2022/06/15 07:56:33;;;;;;;5.80;3.33;;;;;;;;;;5058661;28;20216;-63
2022/06/15 07:59:02;;;;;;;8.30;3.45;;;;;;;;;;5058024;28;20208;-63
2022/06/15 08:01:29;;;;;;;3.83;3.15;;;;;;;;;;5046333;28;20409;-63
2022/06/15 08:03:56;;;;;;;6.90;3.20;;;;;;;;;;5038529;28;20205;-64
2022/06/15 08:06:23;;;;;;;10.35;3.17;;;;;;;;;;5037881;28;20260;-62
2022/06/15 08:08:49;;;;;;;5.43;3.20;;;;;;;;;;5038023;28;20241;-63
2022/06/15 08:11:16;;;;;;;4.75;2.83;;;;;;;;;;5044410;28;20209;-64
2022/06/15 08:13:42;;;;;;;10.15;3.63;;;;;;;;;;5058438;28;20216;-66
2022/06/15 08:16:09;;;;;;;6.38;3.10;;;;;;;;;;5058610;28;20592;-64
2022/06/15 08:18:40;;;;;;;5.40;2.67;;;;;;;;;;5057522;28;20204;-63
2022/06/15 08:21:10;;;;;;;3.20;2.90;;;;;;;;;;5057668;28;20209;-63
2022/06/15 08:23:37;;;;;;;6.53;3.47;;;;;;;;;;5055537;28;20263;-64
2022/06/15 08:26:05;;;;;;;10.38;3.47;;;;;;;;;;5056699;28;20213;-63
2022/06/15 08:28:32;;;;;;;4.55;2.67;;;;;;;;;;5047731;28;20229;-64
2022/06/15 08:30:59;;;;;;;6.18;3.40;;;;;;;;;;5053910;28;20210;-63
2022/06/15 08:33:25;;;;;;;6.28;2.53;;;;;;;;;;5042561;28;20515;-64
2022/06/15 08:35:52;;;;;;;4.95;2.80;;;;;;;;;;5041997;28;20463;-64
2022/06/15 08:38:21;;;;;;;6.78;3.00;;;;;;;;;;5041418;28;20205;-64
2022/06/15 08:40:49;;;;;;;5.50;2.97;;;;;;;;;;5042284;28;20268;-63
2022/06/15 08:43:22;;;;;;;5.38;2.60;;;;;;;;;;5059719;28;20432;-64
2022/06/15 08:45:49;;;;;;;7.30;2.92;;;;;;;;;;5042873;28;20225;-64
2022/06/15 08:48:23;;;;;;;6.68;3.22;;;;;;;;;;5043094;28;20439;-64
2022/06/15 08:50:51;;;;;;;4.55;2.85;;;;;;;;;;5061355;28;20209;-63
2022/06/15 08:53:20;;;;;;;5.60;2.58;;;;;;;;;;5061515;28;20372;-64
2022/06/15 08:55:50;;;;;;;3.88;2.80;;;;;;;;;;5061611;28;20216;-63
2022/06/15 08:58:20;;;;;;;6.60;2.47;;;;;;;;;;5061220;28;20543;-64
2022/06/15 09:00:47;;;;;;;3.70;2.80;;;;;;;;;;5060714;28;20215;-64
2022/06/15 09:03:18;;;;;;;7.40;2.72;;;;;;;;;;5061167;28;20209;-64
2022/06/15 09:05:48;;;;;;;4.68;2.83;;;;;;;;;;5051132;28;20241;-63
2022/06/15 09:08:30;;;;;;;5.65;3.10;;;;;;;;;;5040559;28;20579;-63
2022/06/15 09:11:01;;;;;;;8.07;3.00;;;;;;;;;;5041334;28;20205;-63
2022/06/15 09:13:36;;;;;;;9.32;2.92;;;;;;;;;;5053265;28;20208;-63
2022/06/15 09:16:08;;;;;;;4.35;2.72;;;;;;;;;;5061597;28;20431;-63
2022/06/15 09:18:37;;;;;;;5.32;3.10;;;;;;;;;;5055868;28;20513;-63
2022/06/15 09:21:07;;;;;;;4.05;2.70;;;;;;;;;;5041048;28;20419;-63
2022/06/15 09:23:36;;;;;;;6.50;2.80;;;;;;;;;;5041036;28;20209;-63
2022/06/15 09:26:05;;;;;;;7.85;2.65;;;;;;;;;;5058172;28;20208;-63
2022/06/15 09:28:35;;;;;;;6.72;2.42;;;;;;;;;;5047900;28;20232;-62
2022/06/15 09:31:03;;;;;;;5.43;2.58;;;;;;;;;;5041010;28;20276;-63
2022/06/15 09:33:32;;;;;;;4.40;2.60;;;;;;;;;;5040452;28;20209;-63
2022/06/15 09:36:05;;;;;;;5.38;3.08;;;;;;;;;;5053161;28;20228;-63
2022/06/15 09:38:32;;;;;;;5.57;3.05;;;;;;;;;;5059703;28;20216;-63
2022/06/15 09:41:01;;;;;;;3.55;2.58;;;;;;;;;;5057723;28;20212;-63
2022/06/15 09:43:36;;;;;;;2.90;2.58;;;;;;;;;;5058286;28;20498;-63
2022/06/15 09:46:08;;;;;;;8.70;2.78;;;;;;;;;;5054888;28;20218;-63
2022/06/15 09:48:53;;;;;;;5.50;2.30;;;;;;;;;;5057932;28;20234;-63
2022/06/15 09:51:23;;;;;;;8.90;2.92;;;;;;;;;;5054771;28;20212;-63
2022/06/15 09:53:53;;;;;;;5.35;3.85;;;;;;;;;;5037559;28;20224;-63
2022/06/15 09:56:20;;;;;;;4.35;2.45;;;;;;;;;;5056485;28;20212;-63
2022/06/15 09:58:51;;;;;;;6.60;2.50;;;;;;;;;;5057759;28;20217;-64
2022/06/15 10:01:18;;;;;;;4.68;2.55;;;;;;;;;;5058044;28;20208;-64
2022/06/15 10:03:46;;;;;;;3.83;3.53;;;;;;;;;;5038307;28;20416;-63
2022/06/15 10:06:16;;;;;;;3.70;2.67;;;;;;;;;;5037045;28;20467;-63
2022/06/15 10:08:43;;;;;;;4.93;2.47;;;;;;;;;;5038050;28;20233;-64
2022/06/15 10:11:14;;;;;;;4.40;2.20;;;;;;;;;;5037360;28;20217;-63
2022/06/15 10:13:41;;;;;;;8.15;4.72;;;;;;;;;;5036707;28;20213;-63
2022/06/15 10:16:18;;;;;;;2.50;2.22;;;;;;;;;;5037586;28;20450;-63
2022/06/15 10:18:46;;;;;;;2.85;2.42;;;;;;;;;;5045554;28;20223;-64
2022/06/15 10:21:19;;;;;;;5.43;2.45;;;;;;;;;;5044532;28;20213;-64
2022/06/15 10:23:51;;;;;;;8.93;2.72;;;;;;;;;;5057383;28;20225;-63
2022/06/15 10:26:38;;;;;;;3.25;2.30;;;;;;;;;;5056545;28;20536;-63
2022/06/15 10:29:24;;;;;;;4.90;2.42;;;;;;;;;;5053579;28;20416;-63
2022/06/15 10:32:00;;;;;;;7.68;2.72;;;;;;;;;;5057053;28;20349;-63
2022/06/15 10:34:28;;;;;;;3.13;2.42;;;;;;;;;;5057135;28;20551;-62
2022/06/15 10:36:56;;;;;;;4.70;2.53;;;;;;;;;;5056549;28;20435;-63
2022/06/15 10:39:24;;;;;;;4.57;3.97;;;;;;;;;;5057104;28;20400;-64
2022/06/15 10:41:50;;;;;;;2.58;2.38;;;;;;;;;;5057388;28;20539;-63
2022/06/15 10:44:28;;;;;;;6.30;4.72;;;;;;;;;;5057015;28;20404;-63
2022/06/15 10:46:57;;;;;;;6.13;2.10;;;;;;;;;;5056896;28;20528;-63
2022/06/15 10:49:25;;;;;;;2.75;2.00;;;;;;;;;;5057457;28;20264;-63
2022/06/15 10:51:51;;;;;;;5.90;1.98;;;;;;;;;;5056612;28;20226;-64
2022/06/15 10:54:23;;;;;;;8.38;3.50;;;;;;;;;;5056179;28;20219;-62
2022/06/15 11:02:26;;;;;;;4.32;1.80;;;;;;;;;;5036609;28;20308;-63
2022/06/15 11:04:57;;;;;;;1.92;1.83;;;;;;;;;;5035884;28;20548;-64
2022/06/15 11:07:28;;;;;;;2.00;1.90;;;;;;;;;;5036446;28;20220;-63
2022/06/15 11:10:02;;;;;;;4.78;2.25;;;;;;;;;;5035648;28;20232;-62
2022/06/15 11:12:32;;;;;;;2.70;2.10;;;;;;;;;;5036067;28;20208;-63
2022/06/15 11:14:59;;;;;;;6.03;2.28;;;;;;;;;;5036071;28;20241;-63
2022/06/15 11:20:23;;;;;;;4.10;2.50;;;;;;;;;;5053154;28;20207;-63
2022/06/15 11:22:51;;;;;;;3.65;2.35;;;;;;;;;;5047610;28;20378;-63
2022/06/15 11:25:22;;;;;;;3.45;2.25;;;;;;;;;;5047288;28;20524;-63
2022/06/15 11:27:50;;;;;;;1.80;1.70;;;;;;;;;;5048204;28;20399;-63
2022/06/15 11:30:21;;;;;;;2.20;2.10;;;;;;;;;;5053159;28;20228;-63
2022/06/15 11:32:51;;;;;;;1.85;1.75;;;;;;;;;;5057037;28;20520;-63
2022/06/15 11:35:22;;;;;;;4.40;2.40;;;;;;;;;;5055779;28;20219;-63
2022/06/15 11:37:52;;;;;;;5.55;2.38;;;;;;;;;;5053046;28;20212;-64
2022/06/15 11:40:21;;;;;;;2.25;2.05;;;;;;;;;;5036049;28;20209;-63
2022/06/15 11:42:50;;;;;;;4.22;1.73;;;;;;;;;;5036399;28;20216;-64
2022/06/15 11:45:17;;;;;;;2.83;1.58;;;;;;;;;;5050050;28;20556;-64
2022/06/15 11:47:51;;;;;;;5.82;2.13;;;;;;;;;;5045869;28;20217;-64
2022/06/15 11:50:22;;;;;;;4.40;1.85;;;;;;;;;;5054590;28;20307;-64
2022/06/15 11:52:59;;;;;;;8.35;2.00;;;;;;;;;;5055312;28;20213;-64
2022/06/15 11:55:30;;;;;;;2.10;2.00;;;;;;;;;;5055603;28;20218;-64
2022/06/15 11:58:09;;;;;;;4.55;2.00;;;;;;;;;;5050639;28;20237;-64
2022/06/15 12:00:39;;;;;;;3.50;2.05;;;;;;;;;;5051283;28;20234;-64
2022/06/15 12:03:14;;;;;;;7.55;2.28;;;;;;;;;;5054931;28;20547;-63
2022/06/15 12:05:44;;;;;;;2.03;1.60;;;;;;;;;;5059120;28;20231;-63
2022/06/15 12:08:16;;;;;;;1.80;1.70;;;;;;;;;;5058535;28;20204;-65
2022/06/15 12:10:44;;;;;;;4.75;1.65;;;;;;;;;;5058936;28;20251;-64
2022/06/15 12:13:14;;;;;;;2.25;1.70;;;;;;;;;;5059241;28;20209;-64
2022/06/15 12:15:44;;;;;;;1.75;1.65;;;;;;;;;;5041316;28;20536;-64
2022/06/15 12:18:23;;;;;;;4.22;1.90;;;;;;;;;;5051729;28;20208;-64
2022/06/15 12:20:55;;;;;;;2.08;1.88;;;;;;;;;;5058287;28;20212;-63
2022/06/15 12:23:48;;;;;;;5.07;1.90;;;;;;;;;;5059209;28;20218;-64
2022/06/15 12:26:22;;;;;;;1.75;1.70;;;;;;;;;;5033782;28;20226;-63
2022/06/15 12:28:55;;;;;;;2.40;1.65;;;;;;;;;;5059232;28;20220;-64
2022/06/15 12:31:27;;;;;;;1.90;1.80;;;;;;;;;;5059337;28;20212;-64
2022/06/15 12:33:57;;;;;;;3.95;1.83;;;;;;;;;;5039028;28;20423;-63
2022/06/15 12:36:28;;;;;;;2.13;1.77;;;;;;;;;;5038815;28;20241;-64
2022/06/15 12:39:05;;;;;;;3.72;2.20;;;;;;;;;;5039357;28;20201;-64
2022/06/15 12:44:20;;;;;;;1.83;1.73;;;;;;;;;;5059102;28;20423;-64
2022/06/15 12:46:47;;;;;;;5.47;2.03;;;;;;;;;;5058775;28;20536;-64
2022/06/15 12:49:26;;;;;;;3.22;2.22;;;;;;;;;;5059227;28;20233;-64
2022/06/15 12:51:57;;;;;;;2.13;1.85;;;;;;;;;;5038643;28;20584;-63
2022/06/15 12:54:27;;;;;;;5.03;2.03;;;;;;;;;;5038634;28;20421;-64
2022/06/15 12:56:58;;;;;;;5.07;2.17;;;;;;;;;;5038865;28;20214;-63
2022/06/15 12:59:43;;;;;;;3.10;1.98;;;;;;;;;;5038880;28;20209;-63
2022/06/15 13:02:12;;;;;;;4.68;1.90;;;;;;;;;;5039010;28;20563;-64
2022/06/15 13:04:47;;;;;;;2.42;1.90;;;;;;;;;;5037917;28;20555;-63
2022/06/15 13:07:18;;;;;;;2.08;1.80;;;;;;;;;;5049294;28;20212;-64
2022/06/15 13:10:12;;;;;;;2.25;1.70;;;;;;;;;;5059280;28;20252;-63
2022/06/15 13:12:41;;;;;;;9.52;2.25;;;;;;;;;;5059428;28;20542;-63
2022/06/15 13:15:16;;;;;;;3.85;1.67;;;;;;;;;;5058223;28;20236;-63
2022/06/15 13:18:05;;;;;;;2.92;1.65;;;;;;;;;;5059101;28;20410;-63
2022/06/15 13:20:32;;;;;;;3.42;1.85;;;;;;;;;;5044249;28;20193;-64
2022/06/15 13:22:59;;;;;;;3.22;1.77;;;;;;;;;;5044867;28;20228;-64
2022/06/15 13:25:25;;;;;;;1.80;1.70;;;;;;;;;;5044172;28;20204;-64
2022/06/15 13:28:18;;;;;;;3.20;2.13;;;;;;;;;;5044175;28;20386;-64
2022/06/15 13:30:54;;;;;;;1.83;1.70;;;;;;;;;;5044039;28;20225;-64
2022/06/15 13:33:30;;;;;;;2.20;1.80;;;;;;;;;;5043982;28;20204;-71
2022/06/15 13:36:11;;;;;;;2.30;1.90;;;;;;;;;;5043519;28;20453;-72
2022/06/15 13:38:38;;;;;;;2.47;1.83;;;;;;;;;;5043977;28;20427;-72
2022/06/15 13:41:25;;;;;;;2.28;1.98;;;;;;;;;;5044295;28;20197;-72
2022/06/15 13:44:23;;;;;;;4.05;2.00;;;;;;;;;;5040688;28;20232;-72
2022/06/15 13:46:55;;;;;;;5.22;1.75;;;;;;;;;;5002436;28;20207;-72
2022/06/15 13:49:26;;;;;;;1.98;1.80;;;;;;;;;;5035778;28;20221;-72
2022/06/15 13:51:55;;;;;;;3.28;2.33;;;;;;;;;;5043821;28;20201;-72
2022/06/15 13:54:32;;;;;;;3.45;1.90;;;;;;;;;;5043828;28;20221;-72
2022/06/15 13:57:04;;;;;;;2.67;1.50;;;;;;;;;;5043618;28;20197;-72
2022/06/15 13:59:34;;;;;;;1.80;1.50;;;;;;;;;;5044139;28;20194;-72
2022/06/15 14:02:12;;;;;;;2.88;1.77;;;;;;;;;;5043825;28;20232;-72
2022/06/15 14:04:49;;;;;;;5.63;1.85;;;;;;;;;;5043510;28;20212;-72
2022/06/15 14:07:24;;;;;;;2.72;1.67;;;;;;;;;;5043057;28;20211;-72
2022/06/15 14:09:56;;;;;;;2.85;1.90;;;;;;;;;;5043669;28;20318;-72
2022/06/15 14:12:30;;;;;;;5.47;2.08;;;;;;;;;;5043409;28;20201;-71
2022/06/15 14:15:07;;;;;;;1.98;1.70;;;;;;;;;;5043440;28;20197;-71
2022/06/15 14:17:42;;;;;;;3.88;2.00;;;;;;;;;;5043457;28;20484;-72
2022/06/15 14:20:11;;;;;;;2.50;2.00;;;;;;;;;;5043514;28;20208;-72
2022/06/15 14:22:45;;;;;;;1.92;1.83;;;;;;;;;;5043459;28;20500;-72
2022/06/15 14:25:14;;;;;;;3.65;1.60;;;;;;;;;;5042803;28;20197;-72
2022/06/15 14:27:41;;;;;;;2.08;1.60;;;;;;;;;;5042758;28;20201;-72
2022/06/15 14:30:18;;;;;;;2.15;1.80;;;;;;;;;;5043050;28;20555;-72
2022/06/15 14:32:45;;;;;;;3.80;2.00;;;;;;;;;;5042962;28;20207;-72
2022/06/15 14:35:13;;;;;;;2.92;1.92;;;;;;;;;;5043084;28;20197;-72
2022/06/15 14:37:40;;;;;;;2.38;1.88;;;;;;;;;;5042758;28;20448;-72
2022/06/15 14:40:07;;;;;;;3.70;1.73;;;;;;;;;;5042943;28;20206;-72
2022/06/15 14:42:54;;;;;;;2.45;1.75;;;;;;;;;;5042668;28;20205;-72
2022/06/15 14:45:21;;;;;;;3.67;1.70;;;;;;;;;;5043107;28;20201;-72
2022/06/15 14:47:51;;;;;;;3.95;1.77;;;;;;;;;;5042988;28;20197;-72
2022/06/15 14:50:18;;;;;;;1.88;1.70;;;;;;;;;;5042839;28;20529;-72
2022/06/15 14:52:44;;;;;;;5.25;2.20;;;;;;;;;;5042691;28;20215;-72
2022/06/15 14:55:16;;;;;;;6.78;2.10;;;;;;;;;;5042665;28;20210;-71
2022/06/15 14:57:43;;;;;;;2.33;1.80;;;;;;;;;;5042663;28;20209;-72
2022/06/15 15:00:17;;;;;;;2.42;1.60;;;;;;;;;;5042775;28;20377;-72
2022/06/15 15:02:44;;;;;;;3.05;1.60;;;;;;;;;;5042622;28;20236;-72
2022/06/15 15:05:12;;;;;;;1.90;1.80;;;;;;;;;;5042235;28;20232;-72
2022/06/15 15:10:29;;;;;;;2.88;1.95;;;;;;;;;;5042466;28;20223;-72
2022/06/15 15:12:56;;;;;;;4.65;2.20;;;;;;;;;;5042786;28;20368;-72
2022/06/15 15:15:22;;;;;;;2.10;1.77;;;;;;;;;;5042353;28;20201;-72
2022/06/15 15:17:50;;;;;;;2.50;1.83;;;;;;;;;;5041892;28;20197;-72
2022/06/15 15:20:32;;;;;;;2.15;1.90;;;;;;;;;;5042542;28;20208;-72